createdAt,value
2019-04-26T00:02:22.247Z,1.00
2019-04-26T00:04:48.969Z,0.70
2019-04-26T00:07:15.687Z,0.80
2019-04-26T00:09:43.195Z,0.80
2019-04-26T00:12:18.327Z,0.68
2019-04-26T00:14:47.246Z,0.78
2019-04-26T00:17:15.693Z,0.68
2019-04-26T00:19:42.424Z,0.90
2019-04-26T00:22:09.461Z,0.85
2019-04-26T00:24:37.062Z,0.90
2019-04-26T00:27:03.792Z,1.00
2019-04-26T00:29:30.083Z,0.85
2019-04-26T00:31:56.531Z,0.90
2019-04-26T00:34:22.859Z,0.78
2019-04-26T00:36:49.232Z,0.62
2019-04-26T00:39:16.085Z,0.70
2019-04-26T00:41:42.475Z,0.95
2019-04-26T00:44:08.776Z,0.80
2019-04-26T00:46:35.201Z,0.78
2019-04-26T00:49:03.005Z,0.70
2019-04-26T00:51:29.327Z,0.65
2019-04-26T00:53:55.648Z,1.00
2019-04-26T00:56:22.458Z,0.80
2019-04-26T00:58:48.991Z,0.70
2019-04-26T01:01:17.308Z,0.85
2019-04-26T01:03:43.643Z,0.70
2019-04-26T01:06:11.968Z,0.80
2019-04-26T01:08:38.296Z,0.80
2019-04-26T01:11:05.091Z,0.80
2019-04-26T01:13:31.395Z,0.70
2019-04-26T01:15:57.939Z,0.70
2019-04-26T01:18:24.490Z,1.15
2019-04-26T01:20:52.166Z,0.65
2019-04-26T01:23:18.781Z,0.90
2019-04-26T01:25:59.613Z,0.65
2019-04-26T01:28:29.633Z,0.70
2019-04-26T01:30:55.931Z,0.85
2019-04-26T01:33:22.259Z,0.70
2019-04-26T01:35:49.320Z,0.70
2019-04-26T01:38:15.827Z,0.80
2019-04-26T01:40:44.079Z,0.82
2019-04-26T01:43:15.006Z,0.60
2019-04-26T01:45:49.244Z,0.80
2019-04-26T01:48:37.806Z,0.80
2019-04-26T01:51:04.233Z,0.75
2019-04-26T01:53:31.648Z,0.80
2019-04-26T01:55:57.951Z,0.72
2019-04-26T01:58:25.229Z,0.72
2019-04-26T02:00:56.442Z,0.78
2019-04-26T02:03:25.561Z,0.65
2019-04-26T02:05:52.053Z,0.70
2019-04-26T02:08:18.383Z,0.90
2019-04-26T02:10:44.781Z,0.65
2019-04-26T02:13:11.080Z,0.80
2019-04-26T02:15:37.425Z,0.40
2019-04-26T02:18:03.916Z,0.88
2019-04-26T02:20:46.291Z,0.70
2019-04-26T02:23:14.519Z,0.90
2019-04-26T02:25:40.828Z,0.75
2019-04-26T02:28:07.252Z,0.78
2019-04-26T02:30:35.213Z,0.72
2019-04-26T02:33:01.692Z,1.02
2019-04-26T02:35:29.032Z,0.88
2019-04-26T02:37:56.346Z,1.00
2019-04-26T02:40:22.643Z,0.82
2019-04-26T02:42:49.039Z,0.70
2019-04-26T02:45:41.183Z,0.70
2019-04-26T02:48:28.484Z,0.80
2019-04-26T02:51:05.378Z,0.72
2019-04-26T02:53:36.948Z,0.70
2019-04-26T02:56:25.672Z,0.70
2019-04-26T02:59:01.630Z,0.90
2019-04-26T03:01:29.362Z,1.05
2019-04-26T03:03:56.177Z,1.50
2019-04-26T03:06:23.291Z,1.10
2019-04-26T03:08:49.623Z,1.05
2019-04-26T03:11:23.269Z,1.60
2019-04-26T03:14:13.352Z,0.85
2019-04-26T03:17:02.597Z,0.90
2019-04-26T03:19:36.257Z,0.82
2019-04-26T03:22:39.441Z,1.10
2019-04-26T03:25:36.986Z,1.87
2019-04-26T03:28:14.255Z,1.20
2019-04-26T03:30:52.292Z,1.30
2019-04-26T03:33:25.457Z,1.50
2019-04-26T03:36:18.952Z,1.55
2019-04-26T03:38:59.702Z,1.10
2019-04-26T03:41:36.638Z,1.40
2019-04-26T03:44:31.231Z,1.12
2019-04-26T03:46:59.058Z,1.30
2019-04-26T03:49:48.664Z,1.27
2019-04-26T03:52:37.051Z,0.95
2019-04-26T03:55:26.277Z,1.15
2019-04-26T03:58:10.394Z,1.15
2019-04-26T04:00:39.315Z,1.35
2019-04-26T04:03:13.900Z,1.52
2019-04-26T04:05:48.089Z,0.98
2019-04-26T04:08:18.223Z,0.80
2019-04-26T04:10:56.366Z,0.90
2019-04-26T04:13:43.188Z,1.10
2019-04-26T04:16:14.733Z,1.45
2019-04-26T04:18:45.411Z,0.98
2019-04-26T04:21:35.560Z,1.20
2019-04-26T04:24:04.796Z,0.90
2019-04-26T04:26:39.618Z,0.90
2019-04-26T04:29:39.998Z,0.62
2019-04-26T04:32:00.068Z,0.70
2019-04-26T04:34:42.123Z,0.80
2019-04-26T04:37:12.181Z,0.88
2019-04-26T04:40:00.367Z,1.15
2019-04-26T04:42:35.149Z,1.12
2019-04-26T04:45:28.537Z,0.72
2019-04-26T04:48:30.545Z,0.65
2019-04-26T04:51:15.641Z,0.90
2019-04-26T04:53:47.952Z,0.80
2019-04-26T04:56:33.144Z,0.60
2019-04-26T04:59:12.180Z,0.78
2019-04-26T05:02:08.463Z,0.60
2019-04-26T05:04:44.306Z,0.72
2019-04-26T05:07:25.757Z,0.65
2019-04-26T05:10:14.171Z,0.90
2019-04-26T05:12:50.047Z,0.57
2019-04-26T05:15:37.155Z,0.75
2019-04-26T05:18:07.385Z,0.85
2019-04-26T05:20:44.444Z,0.90
2019-04-26T05:23:24.807Z,0.90
2019-04-26T05:26:11.847Z,0.80
2019-04-26T05:28:47.547Z,0.95
2019-04-26T05:31:30.269Z,0.95
2019-04-26T05:34:06.469Z,0.88
2019-04-26T05:36:52.756Z,0.60
2019-04-26T05:39:25.533Z,0.82
2019-04-26T05:42:24.608Z,0.93
2019-04-26T05:45:31.639Z,0.70
2019-04-26T05:48:38.555Z,0.50
2019-04-26T05:51:13.419Z,0.85
2019-04-26T05:54:22.273Z,0.60
2019-04-26T05:56:58.307Z,0.60
2019-04-26T05:59:50.407Z,0.57
2019-04-26T06:02:52.655Z,0.75
2019-04-26T06:05:37.379Z,0.70
2019-04-26T06:08:30.434Z,0.60
2019-04-26T06:10:48.043Z,0.53
2019-04-26T06:13:22.823Z,0.60
2019-04-26T06:16:00.205Z,0.60
2019-04-26T06:18:42.715Z,0.57
2019-04-26T06:21:30.835Z,0.78
2019-04-26T06:24:09.807Z,0.60
2019-04-26T06:27:13.705Z,0.70
2019-04-26T06:29:46.961Z,0.60
2019-04-26T06:32:33.485Z,0.50
2019-04-26T06:35:14.676Z,0.60
2019-04-26T06:38:04.791Z,0.80
2019-04-26T06:41:08.159Z,0.42
2019-04-26T06:43:38.663Z,0.80
2019-04-26T06:46:25.768Z,0.47
2019-04-26T06:49:30.181Z,0.57
2019-04-26T06:52:11.927Z,0.40
2019-04-26T06:55:15.483Z,0.55
2019-04-26T06:58:11.111Z,0.40
2019-04-26T07:00:58.992Z,0.60
2019-04-26T07:03:37.843Z,0.50
2019-04-26T07:06:09.897Z,0.40
2019-04-26T07:08:57.330Z,0.50
2019-04-26T07:11:59.496Z,0.70
2019-04-26T07:14:52.908Z,0.35
2019-04-26T07:17:41.028Z,0.50
2019-04-26T07:20:11.847Z,0.62
2019-04-26T07:23:02.029Z,0.50
2019-04-26T07:25:53.472Z,0.53
2019-04-26T07:28:34.236Z,0.62
2019-04-26T07:31:04.488Z,0.50
2019-04-26T07:33:55.389Z,0.72
2019-04-26T07:36:37.540Z,0.68
2019-04-26T07:39:19.421Z,0.35
2019-04-26T07:42:07.844Z,0.40
2019-04-26T07:44:51.716Z,0.60
2019-04-26T07:47:30.758Z,0.40
2019-04-26T07:50:14.119Z,0.60
2019-04-26T07:52:53.409Z,0.60
2019-04-26T07:55:41.459Z,0.50
2019-04-26T07:58:44.738Z,0.60
2019-04-26T08:01:46.607Z,0.55
2019-04-26T08:04:17.139Z,0.50
2019-04-26T08:06:56.397Z,0.50
2019-04-26T08:09:27.347Z,0.55
2019-04-26T08:11:57.937Z,0.50
2019-04-26T08:14:28.187Z,0.60
2019-04-26T08:17:36.271Z,0.60
2019-04-26T08:20:28.292Z,0.45
2019-04-26T08:22:58.459Z,0.50
2019-04-26T08:25:25.079Z,0.40
2019-04-26T08:27:53.015Z,0.40
2019-04-26T08:30:22.664Z,0.40
2019-04-26T08:32:56.680Z,0.50
2019-04-26T08:51:26.884Z,0.40
2019-04-26T08:53:53.299Z,0.70
2019-04-26T08:56:31.992Z,0.50
2019-04-26T08:59:01.616Z,0.60
2019-04-26T09:01:29.841Z,0.47
2019-04-26T09:03:58.056Z,0.60
2019-04-26T09:06:29.000Z,0.80
2019-04-26T09:08:55.940Z,0.60
2019-04-26T09:11:26.381Z,0.50
2019-04-26T09:13:50.594Z,0.60
2019-04-26T09:16:22.487Z,0.60
2019-04-26T09:18:54.257Z,0.55
2019-04-26T09:21:19.269Z,0.35
2019-04-26T09:24:01.540Z,0.78
2019-04-26T09:26:46.637Z,0.60
2019-04-26T09:29:26.308Z,0.50
2019-04-26T09:31:55.384Z,0.30
2019-04-26T09:34:32.530Z,0.60
2019-04-26T09:36:58.945Z,0.70
2019-04-26T09:39:25.694Z,0.70
2019-04-26T09:41:54.195Z,0.40
2019-04-26T09:44:37.580Z,0.70
2019-04-26T09:47:07.631Z,0.60
2019-04-26T09:49:52.411Z,0.40
2019-04-26T09:52:23.535Z,0.20
2019-04-26T09:54:49.943Z,0.23
2019-04-26T09:57:16.385Z,0.28
2019-04-26T09:59:42.795Z,0.30
2019-04-26T10:02:10.675Z,0.28
2019-04-26T10:04:37.770Z,0.35
2019-04-26T10:07:04.245Z,0.40
2019-04-26T10:09:31.485Z,0.50
2019-04-26T10:12:16.380Z,0.40
2019-04-26T10:14:47.585Z,0.20
2019-04-26T10:17:17.397Z,0.30
2019-04-26T10:19:46.163Z,0.30
2019-04-26T10:22:12.670Z,0.50
2019-04-26T10:24:39.713Z,0.25
2019-04-26T10:27:06.592Z,0.37
2019-04-26T10:29:33.006Z,0.33
2019-04-26T10:32:01.028Z,0.30
2019-04-26T10:34:27.543Z,0.37
2019-04-26T10:36:56.784Z,0.40
2019-04-26T10:39:23.139Z,0.30
2019-04-26T10:41:49.557Z,0.40
2019-04-26T10:44:15.979Z,0.60
2019-04-26T10:46:54.831Z,0.40
2019-04-26T10:49:36.954Z,0.60
2019-04-26T10:52:06.987Z,0.68
2019-04-26T10:54:36.880Z,0.55
2019-04-26T10:57:06.394Z,0.82
2019-04-26T10:59:39.905Z,0.65
2019-04-26T11:02:06.807Z,0.75
2019-04-26T11:04:33.211Z,0.75
2019-04-26T11:07:02.042Z,0.60
2019-04-26T11:09:27.735Z,1.00
2019-04-26T11:11:54.064Z,1.00
2019-04-26T11:14:22.606Z,0.60
2019-04-26T11:16:48.503Z,0.70
2019-04-26T11:19:14.810Z,1.60
2019-04-26T11:21:41.141Z,0.80
2019-04-26T11:24:15.202Z,0.70
2019-04-26T11:26:41.072Z,0.85
2019-04-26T11:29:07.575Z,0.80
2019-04-26T11:31:35.051Z,1.02
2019-04-26T11:34:05.473Z,1.05
2019-04-26T11:36:30.156Z,1.10
2019-04-26T11:38:56.463Z,0.93
2019-04-26T11:41:22.782Z,1.20
2019-04-26T11:43:52.984Z,1.22
2019-04-26T11:46:21.758Z,0.93
2019-04-26T11:48:58.373Z,1.15
2019-04-26T11:51:19.651Z,1.30
2019-04-26T11:53:47.559Z,1.52
2019-04-26T11:56:17.738Z,1.07
2019-04-26T11:58:44.057Z,1.40
2019-04-26T12:01:13.311Z,1.25
2019-04-26T12:03:42.002Z,1.65
2019-04-26T12:06:13.017Z,1.40
2019-04-26T12:08:41.260Z,2.05
2019-04-26T12:11:17.820Z,2.67
2019-04-26T12:13:35.828Z,1.87
2019-04-26T12:16:02.320Z,2.05
2019-04-26T12:18:28.814Z,1.50
2019-04-26T12:20:57.060Z,1.40
2019-04-26T12:23:23.655Z,1.37
2019-04-26T12:25:50.110Z,1.75
2019-04-26T12:28:16.823Z,1.82
2019-04-26T12:30:43.219Z,1.35
2019-04-26T12:33:09.628Z,1.47
2019-04-26T12:35:36.341Z,0.93
2019-04-26T12:38:03.127Z,1.30
2019-04-26T12:40:29.851Z,1.25
2019-04-26T12:42:56.274Z,1.45
2019-04-26T12:45:36.479Z,1.15
2019-04-26T12:48:07.921Z,1.00
2019-04-26T12:50:36.730Z,1.60
2019-04-26T12:53:02.025Z,1.02
2019-04-26T12:55:28.562Z,1.02
2019-04-26T12:57:55.063Z,1.00
2019-04-26T13:00:23.278Z,1.05
2019-04-26T13:02:50.183Z,0.82
2019-04-26T13:05:18.960Z,1.05
2019-04-26T13:07:47.947Z,1.15
2019-04-26T13:10:35.348Z,0.82
2019-04-26T13:13:07.496Z,0.90
2019-04-26T13:15:59.681Z,1.10
2019-04-26T13:18:26.523Z,0.85
2019-04-26T13:20:53.046Z,1.00
2019-04-26T13:23:19.955Z,1.02
2019-04-26T13:25:46.632Z,0.80
2019-04-26T13:28:15.722Z,0.93
2019-04-26T13:30:43.669Z,1.05
2019-04-26T13:33:10.088Z,0.85
2019-04-26T13:35:36.419Z,0.80
2019-04-26T13:38:05.080Z,0.82
2019-04-26T13:40:31.359Z,0.88
2019-04-26T13:42:57.670Z,0.90
2019-04-26T13:45:42.772Z,0.80
2019-04-26T13:48:27.403Z,0.85
2019-04-26T13:51:06.003Z,0.70
2019-04-26T13:53:32.504Z,1.02
2019-04-26T13:56:01.911Z,0.70
2019-04-26T13:58:27.606Z,0.70
2019-04-26T14:00:54.126Z,0.80
2019-04-26T14:03:20.639Z,0.70
2019-04-26T14:05:47.177Z,0.60
2019-04-26T14:08:13.500Z,1.00
2019-04-26T14:10:39.801Z,0.70
2019-04-26T14:13:06.239Z,0.80
2019-04-26T14:15:32.750Z,0.70
2019-04-26T14:18:00.299Z,0.90
2019-04-26T14:20:27.267Z,0.90
2019-04-26T14:23:11.430Z,0.80
2019-04-26T14:25:40.736Z,0.80
2019-04-26T14:28:07.239Z,0.70
2019-04-26T14:30:37.296Z,0.70
2019-04-26T14:33:02.104Z,0.88
2019-04-26T14:35:28.431Z,0.80
2019-04-26T14:37:54.877Z,0.53
2019-04-26T14:40:21.404Z,0.62
2019-04-26T14:42:48.863Z,0.70
2019-04-26T14:45:23.192Z,0.70
2019-04-26T14:47:47.462Z,0.55
2019-04-26T14:50:14.231Z,0.80
2019-04-26T14:52:41.440Z,0.50
2019-04-26T14:55:08.093Z,0.70
2019-04-26T14:57:34.458Z,0.55
2019-04-26T15:00:01.158Z,0.62
2019-04-26T15:02:47.473Z,0.53
2019-04-26T15:05:34.079Z,0.70
2019-04-26T15:08:03.914Z,0.60
2019-04-26T15:10:43.433Z,0.60
2019-04-26T15:13:15.043Z,0.80
2019-04-26T15:15:34.565Z,0.50
2019-04-26T15:18:02.936Z,0.65
2019-04-26T15:20:40.424Z,0.30
2019-04-26T15:23:06.838Z,0.72
2019-04-26T15:25:33.607Z,0.70
2019-04-26T15:27:59.934Z,0.70
2019-04-26T15:30:26.467Z,0.70
2019-04-26T15:32:52.980Z,0.70
2019-04-26T15:35:19.495Z,1.00
2019-04-26T15:37:45.895Z,0.68
2019-04-26T15:40:14.616Z,0.50
2019-04-26T15:43:03.183Z,0.50
2019-04-26T15:45:32.618Z,0.47
2019-04-26T15:48:02.293Z,0.50
2019-04-26T15:50:33.648Z,0.68
2019-04-26T15:53:00.269Z,0.65
2019-04-26T15:55:26.839Z,0.50
2019-04-26T15:57:53.270Z,0.50
2019-04-26T16:00:20.368Z,0.37
2019-04-26T16:02:46.776Z,0.60
2019-04-26T16:05:13.203Z,0.45
2019-04-26T16:07:40.399Z,0.65
2019-04-26T16:10:07.064Z,0.80
2019-04-26T16:12:33.454Z,0.53
2019-04-26T16:15:02.306Z,0.50
2019-04-26T16:17:28.947Z,0.90
2019-04-26T16:19:56.051Z,0.70
2019-04-26T16:22:25.831Z,0.68
2019-04-26T16:24:53.144Z,0.70
2019-04-26T16:27:20.084Z,0.60
2019-04-26T16:29:58.324Z,0.50
2019-04-26T16:32:21.893Z,0.65
2019-04-26T16:34:50.123Z,0.65
2019-04-26T16:37:21.623Z,0.65
2019-04-26T16:39:48.573Z,0.70
2019-04-26T16:42:14.005Z,0.90
2019-04-26T16:44:44.820Z,2.85
2019-04-26T16:47:08.739Z,3.42
2019-04-26T16:49:41.984Z,3.42
2019-04-26T16:52:07.016Z,1.20
2019-04-26T16:54:34.247Z,1.35
2019-04-26T16:57:06.281Z,1.02
2019-04-26T16:59:28.888Z,1.10
2019-04-26T17:01:55.201Z,1.42
2019-04-26T17:04:28.280Z,1.62
2019-04-26T17:06:49.639Z,0.90
2019-04-26T17:09:16.031Z,1.17
2019-04-26T17:11:43.533Z,1.05
2019-04-26T17:14:11.263Z,1.07
2019-04-26T17:16:38.671Z,1.10
2019-04-26T17:19:05.081Z,1.22
2019-04-26T17:21:34.742Z,1.10
2019-04-26T17:24:19.744Z,0.93
2019-04-26T17:26:59.586Z,0.90
2019-04-26T17:29:26.571Z,1.10
2019-04-26T17:31:52.985Z,1.17
2019-04-26T17:34:22.526Z,0.88
2019-04-26T17:36:50.523Z,0.82
2019-04-26T17:39:17.244Z,1.20
2019-04-26T17:41:50.777Z,1.10
2019-04-26T17:44:13.320Z,1.25
2019-04-26T17:46:39.919Z,1.20
2019-04-26T17:49:06.223Z,1.05
2019-04-26T17:51:41.714Z,1.62
2019-04-26T17:54:21.276Z,1.15
2019-04-26T17:56:31.548Z,1.50
2019-04-26T17:58:57.881Z,1.00
2019-04-26T18:01:42.101Z,1.02
2019-04-26T18:03:55.810Z,0.88
2019-04-26T18:06:29.432Z,1.07
2019-04-26T18:08:52.820Z,1.22
2019-04-26T18:11:22.439Z,1.10
2019-04-26T18:13:51.165Z,1.07
2019-04-26T18:16:17.871Z,0.85
2019-04-26T18:18:50.062Z,1.05
2019-04-26T18:21:22.925Z,1.25
2019-04-26T18:23:54.641Z,1.00
2019-04-26T18:26:21.540Z,1.17
2019-04-26T18:28:51.876Z,0.93
2019-04-26T18:31:21.473Z,1.00
2019-04-26T18:33:50.496Z,0.90
2019-04-26T18:36:19.254Z,1.17
2019-04-26T18:38:48.574Z,1.10
2019-04-26T18:41:13.724Z,1.12
2019-04-26T18:43:40.063Z,0.80
2019-04-26T18:46:12.752Z,1.05
2019-04-26T18:48:41.939Z,0.90
2019-04-26T18:51:11.045Z,0.90
2019-04-26T18:53:39.722Z,1.02
2019-04-26T18:56:08.102Z,0.72
2019-04-26T18:58:38.040Z,0.93
2019-04-26T19:01:05.259Z,0.88
2019-04-26T19:03:33.791Z,0.93
2019-04-26T19:06:02.501Z,1.00
2019-04-26T19:08:29.087Z,0.98
2019-04-26T19:11:00.787Z,1.00
2019-04-26T19:13:37.866Z,1.00
2019-04-26T19:16:23.604Z,0.82
2019-04-26T19:18:51.926Z,1.12
2019-04-26T19:21:38.671Z,0.85
2019-04-26T19:24:07.665Z,0.57
2019-04-26T19:26:33.014Z,1.12
2019-04-26T19:28:57.166Z,1.20
2019-04-26T19:31:27.103Z,2.40
2019-04-26T19:33:55.839Z,1.62
2019-04-26T19:36:22.715Z,1.30
2019-04-26T19:38:49.918Z,1.65
2019-04-26T19:41:21.325Z,1.90
2019-04-26T19:43:46.269Z,1.30
2019-04-26T19:46:24.985Z,1.37
2019-04-26T19:48:56.530Z,1.10
2019-04-26T19:51:27.198Z,1.62
2019-04-26T19:54:14.767Z,1.32
2019-04-26T19:56:43.166Z,1.80
2019-04-26T19:59:09.745Z,1.12
2019-04-26T20:01:36.214Z,1.30
2019-04-26T20:04:02.670Z,1.20
2019-04-26T20:06:29.111Z,1.00
2019-04-26T20:08:55.645Z,1.27
2019-04-26T20:11:22.157Z,1.07
2019-04-26T20:13:51.819Z,1.02
2019-04-26T20:16:17.193Z,1.30
2019-04-26T20:18:44.034Z,1.37
2019-04-26T20:21:15.249Z,1.40
2019-04-26T20:23:43.684Z,1.10
2019-04-26T20:26:08.942Z,1.42
2019-04-26T20:28:37.456Z,1.00
2019-04-26T20:31:12.318Z,1.10
2019-04-26T20:33:39.266Z,0.90
2019-04-26T20:36:05.673Z,0.80
2019-04-26T20:38:35.751Z,0.72
2019-04-26T20:41:01.555Z,1.52
2019-04-26T20:43:28.350Z,0.80
2019-04-26T20:46:11.082Z,0.80
2019-04-26T20:48:25.615Z,0.80
2019-04-26T20:50:51.988Z,1.00
2019-04-26T20:53:19.263Z,1.07
2019-04-26T20:55:47.055Z,0.70
2019-04-26T20:58:13.515Z,1.17
2019-04-26T21:00:39.927Z,0.88
2019-04-26T21:03:06.389Z,0.72
2019-04-26T21:05:45.328Z,1.07
2019-04-26T21:08:03.373Z,0.90
2019-04-26T21:10:29.007Z,0.78
2019-04-26T21:12:55.321Z,0.90
2019-04-26T21:15:24.002Z,0.88
2019-04-26T21:17:51.772Z,0.82
2019-04-26T21:20:18.284Z,0.78
2019-04-26T21:22:44.599Z,0.70
2019-04-26T21:25:12.830Z,0.70
2019-04-26T21:27:42.968Z,0.68
2019-04-26T21:30:23.600Z,0.53
2019-04-26T21:32:56.016Z,0.65
2019-04-26T21:35:40.136Z,0.70
2019-04-26T21:38:08.379Z,0.90
2019-04-26T21:40:55.381Z,0.70
2019-04-26T21:43:19.902Z,0.82
2019-04-26T21:45:46.400Z,0.62
2019-04-26T21:48:13.812Z,0.62
2019-04-26T21:50:40.531Z,0.70
2019-04-26T21:53:07.108Z,0.65
2019-04-26T21:55:38.354Z,1.07
2019-04-26T21:58:02.697Z,0.80
2019-04-26T22:00:49.813Z,0.45
2019-04-26T22:03:16.627Z,0.60
2019-04-26T22:05:43.978Z,0.78
2019-04-26T22:08:17.443Z,0.80
2019-04-26T22:10:43.785Z,0.70
2019-04-26T22:13:13.932Z,0.85
2019-04-26T22:15:44.016Z,0.50
2019-04-26T22:18:21.686Z,0.68
2019-04-26T22:20:54.028Z,0.53
2019-04-26T22:23:27.547Z,0.53
2019-04-26T22:25:56.021Z,0.50
2019-04-26T22:28:23.557Z,0.70
2019-04-26T22:30:50.910Z,0.80
2019-04-26T22:33:17.447Z,0.80
2019-04-26T22:35:44.113Z,0.80
2019-04-26T22:38:10.532Z,0.78
2019-04-26T22:40:36.939Z,0.50
2019-04-26T22:43:10.960Z,0.80
2019-04-26T22:45:39.552Z,0.53
2019-04-26T22:48:23.312Z,0.60
2019-04-26T22:50:52.069Z,0.68
2019-04-26T22:53:16.287Z,0.42
2019-04-26T22:55:44.435Z,0.55
2019-04-26T22:58:10.841Z,0.62
2019-04-26T23:00:38.849Z,0.60
2019-04-26T23:03:07.253Z,0.70
2019-04-26T23:05:37.663Z,0.72
2019-04-26T23:08:03.355Z,0.70
2019-04-26T23:10:34.033Z,0.80
2019-04-26T23:13:07.771Z,0.68
2019-04-26T23:15:53.002Z,0.68
2019-04-26T23:18:33.465Z,0.60
2019-04-26T23:21:07.718Z,0.80
2019-04-26T23:23:33.142Z,0.60
2019-04-26T23:26:02.384Z,0.60
2019-04-26T23:28:31.637Z,0.50
2019-04-26T23:30:55.787Z,0.70
2019-04-26T23:33:23.820Z,0.57
2019-04-26T23:35:50.306Z,0.50
2019-04-26T23:38:16.620Z,0.90
2019-04-26T23:40:43.070Z,0.50
2019-04-26T23:43:09.451Z,0.80
2019-04-26T23:45:35.768Z,0.40
2019-04-26T23:48:03.552Z,0.30
2019-04-26T23:50:30.512Z,0.70
2019-04-26T23:52:57.067Z,0.68
2019-04-26T23:55:23.615Z,0.60
2019-04-26T23:57:50.135Z,0.60
